METAR LDZA 260900Z VRB02KT CAVOK 22/13 Q1015 NOSIG =
METAR LDZA 260830Z VRB01KT CAVOK 22/14 Q1015 NOSIG =
METAR LDZA 260800Z 00000KT CAVOK 21/14 Q1015 NOSIG =
METAR LDZA 260730Z 00000KT CAVOK 20/14 Q1015 NOSIG =
METAR LDZA 260700Z 00000KT CAVOK 20/14 Q1015 NOSIG =
METAR LDZA 260630Z 00000KT CAVOK 19/14 Q1015 NOSIG =
METAR LDZA 260600Z 00000KT CAVOK 18/14 Q1015 NOSIG =
METAR LDZA 260530Z VRB02KT CAVOK 17/14 Q1015 NOSIG =
METAR LDZA 260500Z VRB01KT CAVOK 16/13 Q1014 NOSIG =
METAR LDZA 260430Z VRB01KT CAVOK 16/13 Q1014 NOSIG =
METAR LDZA 260400Z 00000KT CAVOK 15/13 Q1014 NOSIG =
METAR LDZA 260330Z 00000KT CAVOK 15/13 Q1014 NOSIG =
METAR COR LDZA 260300Z 24002KT CAVOK 15/13 Q1014 NOSIG =
METAR LDZA 260230Z 00000KT CAVOK 15/13 Q1014 NOSIG =
METAR LDZA 260200Z 25003KT 220V290 CAVOK 15/13 Q1014 NOSIG =
METAR LDZA 260130Z 25002KT CAVOK 14/13 Q1014 NOSIG =
METAR LDZA 260100Z VRB01KT CAVOK 14/12 Q1014 NOSIG =
METAR LDZA 260030Z 24004KT CAVOK 14/12 Q1014 NOSIG =
METAR LDZA 260000Z 25005KT CAVOK 14/13 Q1014 NOSIG =
METAR LDZA 252330Z 25006KT CAVOK 15/13 Q1014 NOSIG =
METAR LDZA 252300Z 25004KT CAVOK 15/13 Q1015 NOSIG =
METAR LDZA 252230Z 26005KT CAVOK 15/13 Q1015 NOSIG =
METAR LDZA 252200Z 23005KT 200V260 CAVOK 15/13 Q1015 NOSIG =
METAR LDZA 252130Z 24003KT CAVOK 16/13 Q1014 NOSIG =
METAR LDZA 252100Z 26005KT CAVOK 16/13 Q1014 NOSIG =
METAR LDZA 252030Z 22002KT CAVOK 17/13 Q1014 NOSIG =
METAR LDZA 252000Z 23003KT 200V270 CAVOK 17/13 Q1014 NOSIG =
METAR LDZA 251930Z 24003KT 210V280 CAVOK 19/13 Q1013 NOSIG =
METAR LDZA 251900Z VRB02KT CAVOK 21/12 Q1013 NOSIG =
METAR LDZA 251830Z 29005KT 250V330 CAVOK 21/12 Q1013 NOSIG =
METAR LDZA 251800Z 12004KT CAVOK 21/13 Q1013 NOSIG =
METAR LDZA 251730Z 12004KT CAVOK 23/14 Q1013 NOSIG =
METAR LDZA 251700Z 12004KT CAVOK 23/13 Q1013 NOSIG =
METAR LDZA 251630Z 12006KT CAVOK 24/12 Q1012 NOSIG =
METAR LDZA 251600Z 12004KT 090V150 CAVOK 24/11 Q1012 NOSIG =
METAR LDZA 251530Z VRB02KT CAVOK 25/13 Q1013 NOSIG =
METAR LDZA 251500Z VRB02KT CAVOK 25/10 Q1013 NOSIG =
METAR LDZA 251430Z VRB01KT CAVOK 26/11 Q1013 NOSIG =
METAR LDZA 251400Z VRB04KT CAVOK 26/09 Q1013 NOSIG =
METAR LDZA 251330Z 19003KT 080V250 CAVOK 25/11 Q1013 NOSIG =
METAR LDZA 251300Z VRB03KT CAVOK 25/12 Q1013 NOSIG =
METAR LDZA 251230Z VRB03KT CAVOK 25/11 Q1014 NOSIG =
METAR LDZA 251200Z VRB03KT CAVOK 25/09 Q1014 NOSIG =
METAR LDZA 251130Z VRB03KT CAVOK 25/11 Q1014 NOSIG =
METAR LDZA 251100Z VRB02KT CAVOK 24/09 Q1014 NOSIG =
METAR LDZA 251030Z VRB03KT CAVOK 24/09 Q1014 NOSIG =
METAR LDZA 251000Z VRB01KT 9999 FEW047 24/10 Q1015 NOSIG =
METAR LDZA 250930Z VRB02KT 9999 FEW040 23/11 Q1015 NOSIG =
METAR LDZA 250900Z VRB03KT 9999 FEW040 22/12 Q1015 NOSIG =
METAR LDZA 250830Z VRB01KT CAVOK 21/12 Q1015 NOSIG =
METAR LDZA 250800Z VRB02KT CAVOK 20/13 Q1015 NOSIG =
METAR LDZA 250730Z 25003KT 190V330 9999 FEW040 19/12 Q1015 NOSIG =
METAR LDZA 250700Z VRB02KT 9999 FEW040 18/12 Q1015 NOSIG =
METAR LDZA 250630Z 22003KT 170V260 9999 FEW033 16/12 Q1014 NOSIG =
METAR LDZA 250600Z 00000KT 9999 FEW033 15/12 Q1014 NOSIG =
METAR LDZA 250530Z 24003KT 210V270 CAVOK 13/11 Q1014 NOSIG =
METAR LDZA 250500Z 24004KT CAVOK 12/11 Q1014 NOSIG =
METAR LDZA 250430Z 00000KT CAVOK 11/10 Q1014 NOSIG =
METAR LDZA 250400Z 00000KT CAVOK 10/09 Q1013 NOSIG =
METAR LDZA 250330Z 00000KT CAVOK 10/09 Q1013 NOSIG =
METAR LDZA 250300Z 00000KT CAVOK 10/09 Q1013 NOSIG =
METAR LDZA 250230Z 00000KT CAVOK 10/09 Q1013 NOSIG =
METAR LDZA 250200Z 22002KT CAVOK 10/09 Q1013 NOSIG =
METAR LDZA 250130Z 22003KT CAVOK 10/09 Q1013 NOSIG =
METAR LDZA 250100Z 00000KT CAVOK 11/10 Q1013 NOSIG =
METAR LDZA 250030Z 00000KT CAVOK 11/09 Q1013 NOSIG =
METAR LDZA 250000Z VRB02KT CAVOK 12/09 Q1013 NOSIG =
METAR LDZA 242330Z 04003KT 360V070 CAVOK 14/10 Q1013 NOSIG =
METAR LDZA 242300Z 00000KT CAVOK 14/10 Q1014 NOSIG =
METAR LDZA 242230Z 00000KT CAVOK 14/10 Q1014 NOSIG =
METAR LDZA 242200Z 04006KT 010V090 CAVOK 15/10 Q1013 NOSIG =
METAR LDZA 242130Z 02003KT 330V040 CAVOK 15/10 Q1013 NOSIG =